sensor_id;sensor_type;location;lat;lon;timestamp;P1;durP1;ratioP1;P2;durP2;ratioP2
49590;SDS011;35496;-21.974;-46.800;2023-04-25T00:00:26;1.77;;;1.65;;
49590;SDS011;35496;-21.974;-46.800;2023-04-25T00:02:53;4.00;;;1.50;;
49590;SDS011;35496;-21.974;-46.800;2023-04-25T00:05:21;5.32;;;1.83;;
49590;SDS011;35496;-21.974;-46.800;2023-04-25T00:07:48;4.32;;;1.55;;
49590;SDS011;35496;-21.974;-46.800;2023-04-25T00:10:15;1.70;;;1.58;;
49590;SDS011;35496;-21.974;-46.800;2023-04-25T00:12:41;2.38;;;1.75;;
49590;SDS011;35496;-21.974;-46.800;2023-04-25T00:15:07;2.53;;;1.90;;
49590;SDS011;35496;-21.974;-46.800;2023-04-25T00:17:34;5.00;;;2.00;;
49590;SDS011;35496;-21.974;-46.800;2023-04-25T00:20:01;1.70;;;1.60;;
49590;SDS011;35496;-21.974;-46.800;2023-04-25T00:22:30;9.65;;;1.95;;
49590;SDS011;35496;-21.974;-46.800;2023-04-25T00:24:56;2.22;;;1.58;;
49590;SDS011;35496;-21.974;-46.800;2023-04-25T00:27:25;2.95;;;2.08;;
49590;SDS011;35496;-21.974;-46.800;2023-04-25T00:29:52;4.65;;;2.15;;
49590;SDS011;35496;-21.974;-46.800;2023-04-25T00:32:18;2.25;;;2.05;;
49590;SDS011;35496;-21.974;-46.800;2023-04-25T00:34:44;2.38;;;1.65;;
49590;SDS011;35496;-21.974;-46.800;2023-04-25T00:37:10;1.88;;;1.33;;
49590;SDS011;35496;-21.974;-46.800;2023-04-25T00:39:36;5.50;;;2.28;;
49590;SDS011;35496;-21.974;-46.800;2023-04-25T00:42:02;2.38;;;2.17;;
49590;SDS011;35496;-21.974;-46.800;2023-04-25T00:44:31;6.60;;;2.88;;
49590;SDS011;35496;-21.974;-46.800;2023-04-25T00:46:57;9.02;;;2.22;;
49590;SDS011;35496;-21.974;-46.800;2023-04-25T00:49:23;3.38;;;2.22;;
49590;SDS011;35496;-21.974;-46.800;2023-04-25T00:51:49;3.33;;;2.13;;
49590;SDS011;35496;-21.974;-46.800;2023-04-25T00:54:16;2.00;;;1.80;;
49590;SDS011;35496;-21.974;-46.800;2023-04-25T00:56:42;3.83;;;2.33;;
49590;SDS011;35496;-21.974;-46.800;2023-04-25T00:59:09;1.92;;;1.73;;
49590;SDS011;35496;-21.974;-46.800;2023-04-25T01:01:35;6.63;;;2.25;;
49590;SDS011;35496;-21.974;-46.800;2023-04-25T01:04:01;7.55;;;2.17;;
49590;SDS011;35496;-21.974;-46.800;2023-04-25T01:06:27;2.88;;;2.05;;
49590;SDS011;35496;-21.974;-46.800;2023-04-25T01:08:53;2.15;;;1.58;;
49590;SDS011;35496;-21.974;-46.800;2023-04-25T01:11:19;5.55;;;2.08;;
49590;SDS011;35496;-21.974;-46.800;2023-04-25T01:13:45;3.00;;;1.92;;
49590;SDS011;35496;-21.974;-46.800;2023-04-25T01:16:11;2.92;;;2.10;;
49590;SDS011;35496;-21.974;-46.800;2023-04-25T01:18:40;4.00;;;2.78;;
49590;SDS011;35496;-21.974;-46.800;2023-04-25T01:21:13;4.32;;;2.70;;
49590;SDS011;35496;-21.974;-46.800;2023-04-25T01:23:40;8.15;;;2.75;;
49590;SDS011;35496;-21.974;-46.800;2023-04-25T01:26:07;4.53;;;2.08;;
49590;SDS011;35496;-21.974;-46.800;2023-04-25T01:28:34;4.88;;;3.08;;
49590;SDS011;35496;-21.974;-46.800;2023-04-25T01:31:00;4.03;;;2.20;;
49590;SDS011;35496;-21.974;-46.800;2023-04-25T01:33:26;2.45;;;1.90;;
49590;SDS011;35496;-21.974;-46.800;2023-04-25T01:35:53;2.28;;;2.08;;
49590;SDS011;35496;-21.974;-46.800;2023-04-25T01:38:19;2.92;;;2.00;;
49590;SDS011;35496;-21.974;-46.800;2023-04-25T01:40:45;5.40;;;2.22;;
49590;SDS011;35496;-21.974;-46.800;2023-04-25T01:43:14;5.88;;;3.47;;
49590;SDS011;35496;-21.974;-46.800;2023-04-25T01:45:41;5.30;;;2.78;;
49590;SDS011;35496;-21.974;-46.800;2023-04-25T01:48:07;4.47;;;3.00;;
49590;SDS011;35496;-21.974;-46.800;2023-04-25T01:50:34;12.50;;;5.95;;
49590;SDS011;35496;-21.974;-46.800;2023-04-25T01:53:00;13.23;;;6.28;;
49590;SDS011;35496;-21.974;-46.800;2023-04-25T01:55:27;9.98;;;4.85;;
49590;SDS011;35496;-21.974;-46.800;2023-04-25T01:57:53;8.15;;;6.35;;
49590;SDS011;35496;-21.974;-46.800;2023-04-25T02:00:19;6.82;;;6.22;;
49590;SDS011;35496;-21.974;-46.800;2023-04-25T02:02:46;8.27;;;2.97;;
49590;SDS011;35496;-21.974;-46.800;2023-04-25T02:05:12;6.68;;;4.22;;
49590;SDS011;35496;-21.974;-46.800;2023-04-25T02:07:38;7.32;;;3.60;;
49590;SDS011;35496;-21.974;-46.800;2023-04-25T02:10:04;5.18;;;3.15;;
49590;SDS011;35496;-21.974;-46.800;2023-04-25T02:12:30;7.07;;;2.92;;
49590;SDS011;35496;-21.974;-46.800;2023-04-25T02:14:57;7.97;;;5.25;;
49590;SDS011;35496;-21.974;-46.800;2023-04-25T02:17:23;17.25;;;8.05;;
49590;SDS011;35496;-21.974;-46.800;2023-04-25T02:19:49;7.30;;;4.82;;
49590;SDS011;35496;-21.974;-46.800;2023-04-25T02:22:15;8.38;;;5.00;;
49590;SDS011;35496;-21.974;-46.800;2023-04-25T02:24:41;4.72;;;4.28;;
49590;SDS011;35496;-21.974;-46.800;2023-04-25T02:27:07;2.55;;;2.35;;
49590;SDS011;35496;-21.974;-46.800;2023-04-25T02:29:33;9.50;;;3.22;;
49590;SDS011;35496;-21.974;-46.800;2023-04-25T02:32:00;4.32;;;2.65;;
49590;SDS011;35496;-21.974;-46.800;2023-04-25T02:34:26;3.92;;;2.50;;
49590;SDS011;35496;-21.974;-46.800;2023-04-25T02:36:52;2.72;;;1.98;;
49590;SDS011;35496;-21.974;-46.800;2023-04-25T02:39:18;4.15;;;2.25;;
49590;SDS011;35496;-21.974;-46.800;2023-04-25T02:41:44;5.72;;;2.72;;
49590;SDS011;35496;-21.974;-46.800;2023-04-25T02:44:10;3.75;;;2.70;;
49590;SDS011;35496;-21.974;-46.800;2023-04-25T02:46:36;5.20;;;3.20;;
49590;SDS011;35496;-21.974;-46.800;2023-04-25T02:49:02;8.23;;;3.65;;
49590;SDS011;35496;-21.974;-46.800;2023-04-25T02:51:28;8.90;;;3.88;;
49590;SDS011;35496;-21.974;-46.800;2023-04-25T02:53:54;3.67;;;3.15;;
49590;SDS011;35496;-21.974;-46.800;2023-04-25T02:56:20;9.75;;;3.78;;
49590;SDS011;35496;-21.974;-46.800;2023-04-25T02:58:46;7.32;;;3.15;;
49590;SDS011;35496;-21.974;-46.800;2023-04-25T03:01:12;10.15;;;3.28;;
49590;SDS011;35496;-21.974;-46.800;2023-04-25T03:03:38;5.15;;;3.00;;
49590;SDS011;35496;-21.974;-46.800;2023-04-25T03:06:05;5.70;;;2.13;;
49590;SDS011;35496;-21.974;-46.800;2023-04-25T03:08:32;4.35;;;2.55;;
49590;SDS011;35496;-21.974;-46.800;2023-04-25T03:10:59;3.78;;;2.85;;
49590;SDS011;35496;-21.974;-46.800;2023-04-25T03:13:26;4.93;;;2.75;;
49590;SDS011;35496;-21.974;-46.800;2023-04-25T03:15:52;8.25;;;3.08;;
49590;SDS011;35496;-21.974;-46.800;2023-04-25T03:18:18;5.85;;;2.78;;
49590;SDS011;35496;-21.974;-46.800;2023-04-25T03:20:44;5.82;;;3.00;;
49590;SDS011;35496;-21.974;-46.800;2023-04-25T03:23:12;7.10;;;2.88;;
49590;SDS011;35496;-21.974;-46.800;2023-04-25T03:25:38;7.32;;;2.58;;
49590;SDS011;35496;-21.974;-46.800;2023-04-25T03:28:04;8.32;;;2.83;;
49590;SDS011;35496;-21.974;-46.800;2023-04-25T03:30:30;4.63;;;3.38;;
49590;SDS011;35496;-21.974;-46.800;2023-04-25T03:32:56;4.35;;;2.20;;
49590;SDS011;35496;-21.974;-46.800;2023-04-25T03:35:22;8.75;;;2.88;;
49590;SDS011;35496;-21.974;-46.800;2023-04-25T03:37:49;9.48;;;3.22;;
49590;SDS011;35496;-21.974;-46.800;2023-04-25T03:40:15;5.38;;;2.22;;
49590;SDS011;35496;-21.974;-46.800;2023-04-25T03:42:41;5.22;;;2.20;;
49590;SDS011;35496;-21.974;-46.800;2023-04-25T03:45:07;9.77;;;3.15;;
49590;SDS011;35496;-21.974;-46.800;2023-04-25T03:47:33;3.90;;;2.78;;
49590;SDS011;35496;-21.974;-46.800;2023-04-25T03:49:59;4.03;;;2.97;;
49590;SDS011;35496;-21.974;-46.800;2023-04-25T03:52:27;11.85;;;3.47;;
49590;SDS011;35496;-21.974;-46.800;2023-04-25T03:54:53;7.60;;;2.60;;
49590;SDS011;35496;-21.974;-46.800;2023-04-25T03:57:19;6.15;;;3.20;;
49590;SDS011;35496;-21.974;-46.800;2023-04-25T03:59:45;8.30;;;3.45;;
49590;SDS011;35496;-21.974;-46.800;2023-04-25T04:02:11;6.25;;;2.90;;
49590;SDS011;35496;-21.974;-46.800;2023-04-25T04:04:37;6.53;;;2.75;;
49590;SDS011;35496;-21.974;-46.800;2023-04-25T04:07:04;5.45;;;2.63;;
49590;SDS011;35496;-21.974;-46.800;2023-04-25T04:09:30;4.07;;;2.47;;
49590;SDS011;35496;-21.974;-46.800;2023-04-25T04:11:56;3.15;;;1.92;;
49590;SDS011;35496;-21.974;-46.800;2023-04-25T04:14:22;5.57;;;2.00;;
49590;SDS011;35496;-21.974;-46.800;2023-04-25T04:16:48;4.70;;;2.20;;
49590;SDS011;35496;-21.974;-46.800;2023-04-25T04:19:14;8.25;;;3.00;;
49590;SDS011;35496;-21.974;-46.800;2023-04-25T04:21:40;2.55;;;2.00;;
49590;SDS011;35496;-21.974;-46.800;2023-04-25T04:24:07;7.82;;;2.45;;
49590;SDS011;35496;-21.974;-46.800;2023-04-25T04:26:33;4.80;;;2.08;;
49590;SDS011;35496;-21.974;-46.800;2023-04-25T04:28:59;2.38;;;1.80;;
49590;SDS011;35496;-21.974;-46.800;2023-04-25T04:31:26;2.55;;;1.50;;
49590;SDS011;35496;-21.974;-46.800;2023-04-25T04:33:52;5.65;;;1.95;;
49590;SDS011;35496;-21.974;-46.800;2023-04-25T04:36:18;2.47;;;1.55;;
49590;SDS011;35496;-21.974;-46.800;2023-04-25T04:38:48;3.22;;;2.17;;
49590;SDS011;35496;-21.974;-46.800;2023-04-25T04:41:14;4.00;;;1.58;;
49590;SDS011;35496;-21.974;-46.800;2023-04-25T04:43:40;2.97;;;2.50;;
49590;SDS011;35496;-21.974;-46.800;2023-04-25T04:46:07;6.43;;;2.17;;
49590;SDS011;35496;-21.974;-46.800;2023-04-25T04:48:33;3.15;;;2.03;;
49590;SDS011;35496;-21.974;-46.800;2023-04-25T04:50:59;6.88;;;2.65;;
49590;SDS011;35496;-21.974;-46.800;2023-04-25T04:53:26;3.92;;;2.15;;
49590;SDS011;35496;-21.974;-46.800;2023-04-25T04:55:52;4.85;;;2.55;;
49590;SDS011;35496;-21.974;-46.800;2023-04-25T04:58:18;9.23;;;3.33;;
49590;SDS011;35496;-21.974;-46.800;2023-04-25T05:00:44;5.25;;;2.60;;
49590;SDS011;35496;-21.974;-46.800;2023-04-25T05:03:10;10.38;;;3.17;;
49590;SDS011;35496;-21.974;-46.800;2023-04-25T05:05:37;8.98;;;2.53;;
49590;SDS011;35496;-21.974;-46.800;2023-04-25T05:08:05;7.93;;;2.22;;
49590;SDS011;35496;-21.974;-46.800;2023-04-25T05:10:31;5.78;;;1.65;;
49590;SDS011;35496;-21.974;-46.800;2023-04-25T05:12:58;2.25;;;1.77;;
49590;SDS011;35496;-21.974;-46.800;2023-04-25T05:15:24;4.18;;;2.85;;
49590;SDS011;35496;-21.974;-46.800;2023-04-25T05:17:50;4.05;;;2.30;;
49590;SDS011;35496;-21.974;-46.800;2023-04-25T05:20:16;6.07;;;2.85;;
49590;SDS011;35496;-21.974;-46.800;2023-04-25T05:22:44;7.10;;;2.42;;
49590;SDS011;35496;-21.974;-46.800;2023-04-25T05:25:10;9.02;;;2.67;;
49590;SDS011;35496;-21.974;-46.800;2023-04-25T05:27:36;6.03;;;2.50;;
49590;SDS011;35496;-21.974;-46.800;2023-04-25T05:30:03;9.85;;;3.15;;
49590;SDS011;35496;-21.974;-46.800;2023-04-25T05:32:30;5.15;;;2.40;;
49590;SDS011;35496;-21.974;-46.800;2023-04-25T05:34:56;7.50;;;3.03;;
49590;SDS011;35496;-21.974;-46.800;2023-04-25T05:37:22;4.25;;;1.92;;
49590;SDS011;35496;-21.974;-46.800;2023-04-25T05:39:48;6.13;;;2.45;;
49590;SDS011;35496;-21.974;-46.800;2023-04-25T05:42:14;3.83;;;1.75;;
49590;SDS011;35496;-21.974;-46.800;2023-04-25T05:44:40;5.60;;;2.28;;
49590;SDS011;35496;-21.974;-46.800;2023-04-25T05:47:06;6.38;;;2.22;;
49590;SDS011;35496;-21.974;-46.800;2023-04-25T05:49:32;5.35;;;2.33;;
49590;SDS011;35496;-21.974;-46.800;2023-04-25T05:51:58;4.13;;;2.13;;
49590;SDS011;35496;-21.974;-46.800;2023-04-25T05:54:24;3.58;;;2.75;;
49590;SDS011;35496;-21.974;-46.800;2023-04-25T05:56:50;3.20;;;1.90;;
49590;SDS011;35496;-21.974;-46.800;2023-04-25T05:59:16;7.57;;;1.75;;
49590;SDS011;35496;-21.974;-46.800;2023-04-25T06:01:42;4.40;;;1.63;;
49590;SDS011;35496;-21.974;-46.800;2023-04-25T06:04:08;5.72;;;1.63;;
49590;SDS011;35496;-21.974;-46.800;2023-04-25T06:06:34;2.50;;;1.83;;
49590;SDS011;35496;-21.974;-46.800;2023-04-25T06:09:00;3.92;;;1.65;;
49590;SDS011;35496;-21.974;-46.800;2023-04-25T06:11:26;3.08;;;1.30;;
49590;SDS011;35496;-21.974;-46.800;2023-04-25T06:13:52;8.07;;;2.33;;
49590;SDS011;35496;-21.974;-46.800;2023-04-25T06:16:19;6.10;;;2.00;;
49590;SDS011;35496;-21.974;-46.800;2023-04-25T06:18:45;1.98;;;1.65;;
49590;SDS011;35496;-21.974;-46.800;2023-04-25T06:21:11;1.83;;;1.63;;
49590;SDS011;35496;-21.974;-46.800;2023-04-25T06:23:37;3.83;;;1.90;;
49590;SDS011;35496;-21.974;-46.800;2023-04-25T06:26:03;6.32;;;2.63;;
49590;SDS011;35496;-21.974;-46.800;2023-04-25T06:28:29;4.82;;;1.75;;
49590;SDS011;35496;-21.974;-46.800;2023-04-25T06:30:55;4.75;;;1.75;;
49590;SDS011;35496;-21.974;-46.800;2023-04-25T06:33:21;6.10;;;2.55;;
49590;SDS011;35496;-21.974;-46.800;2023-04-25T06:35:49;6.63;;;2.38;;
49590;SDS011;35496;-21.974;-46.800;2023-04-25T06:38:15;6.45;;;2.00;;
49590;SDS011;35496;-21.974;-46.800;2023-04-25T06:40:41;2.03;;;1.42;;
49590;SDS011;35496;-21.974;-46.800;2023-04-25T06:43:07;2.80;;;1.50;;
49590;SDS011;35496;-21.974;-46.800;2023-04-25T06:45:33;6.20;;;2.08;;
49590;SDS011;35496;-21.974;-46.800;2023-04-25T06:47:59;7.18;;;2.20;;
49590;SDS011;35496;-21.974;-46.800;2023-04-25T06:50:26;6.82;;;2.20;;
49590;SDS011;35496;-21.974;-46.800;2023-04-25T06:52:52;3.13;;;1.20;;
49590;SDS011;35496;-21.974;-46.800;2023-04-25T06:55:18;3.80;;;1.65;;
49590;SDS011;35496;-21.974;-46.800;2023-04-25T06:57:44;2.65;;;0.98;;
49590;SDS011;35496;-21.974;-46.800;2023-04-25T07:00:10;2.78;;;1.77;;
49590;SDS011;35496;-21.974;-46.800;2023-04-25T07:02:36;2.17;;;1.58;;
49590;SDS011;35496;-21.974;-46.800;2023-04-25T07:05:03;2.70;;;1.30;;
49590;SDS011;35496;-21.974;-46.800;2023-04-25T07:07:30;5.28;;;1.15;;
49590;SDS011;35496;-21.974;-46.800;2023-04-25T07:09:56;5.78;;;1.70;;
49590;SDS011;35496;-21.974;-46.800;2023-04-25T07:12:22;4.70;;;1.15;;
49590;SDS011;35496;-21.974;-46.800;2023-04-25T07:14:48;3.58;;;1.83;;
49590;SDS011;35496;-21.974;-46.800;2023-04-25T07:17:14;2.35;;;1.48;;
49590;SDS011;35496;-21.974;-46.800;2023-04-25T07:19:40;1.88;;;1.10;;
49590;SDS011;35496;-21.974;-46.800;2023-04-25T07:22:07;4.05;;;1.50;;
49590;SDS011;35496;-21.974;-46.800;2023-04-25T07:24:33;3.30;;;1.83;;
49590;SDS011;35496;-21.974;-46.800;2023-04-25T07:26:59;3.72;;;1.90;;
49590;SDS011;35496;-21.974;-46.800;2023-04-25T07:29:26;2.08;;;1.42;;
49590;SDS011;35496;-21.974;-46.800;2023-04-25T07:31:52;6.93;;;2.28;;
49590;SDS011;35496;-21.974;-46.800;2023-04-25T07:34:18;3.80;;;2.05;;
49590;SDS011;35496;-21.974;-46.800;2023-04-25T07:36:44;5.45;;;2.30;;
49590;SDS011;35496;-21.974;-46.800;2023-04-25T07:39:11;4.97;;;1.85;;
49590;SDS011;35496;-21.974;-46.800;2023-04-25T07:41:37;3.60;;;1.38;;
49590;SDS011;35496;-21.974;-46.800;2023-04-25T07:44:03;1.55;;;1.45;;
49590;SDS011;35496;-21.974;-46.800;2023-04-25T07:46:29;1.98;;;1.60;;
49590;SDS011;35496;-21.974;-46.800;2023-04-25T07:48:55;5.80;;;2.40;;
49590;SDS011;35496;-21.974;-46.800;2023-04-25T07:51:21;4.65;;;2.28;;
49590;SDS011;35496;-21.974;-46.800;2023-04-25T07:53:47;4.10;;;2.45;;
49590;SDS011;35496;-21.974;-46.800;2023-04-25T07:56:13;6.90;;;3.75;;
49590;SDS011;35496;-21.974;-46.800;2023-04-25T07:58:39;10.45;;;4.78;;
49590;SDS011;35496;-21.974;-46.800;2023-04-25T08:01:05;6.63;;;4.13;;
49590;SDS011;35496;-21.974;-46.800;2023-04-25T08:03:31;9.68;;;4.30;;
49590;SDS011;35496;-21.974;-46.800;2023-04-25T08:05:57;7.03;;;3.75;;
49590;SDS011;35496;-21.974;-46.800;2023-04-25T08:08:23;8.15;;;4.45;;
49590;SDS011;35496;-21.974;-46.800;2023-04-25T08:10:50;6.97;;;3.80;;
49590;SDS011;35496;-21.974;-46.800;2023-04-25T08:13:16;4.65;;;3.17;;
49590;SDS011;35496;-21.974;-46.800;2023-04-25T08:15:42;7.75;;;3.50;;
49590;SDS011;35496;-21.974;-46.800;2023-04-25T08:18:08;9.45;;;3.97;;
49590;SDS011;35496;-21.974;-46.800;2023-04-25T08:20:34;7.20;;;4.30;;
49590;SDS011;35496;-21.974;-46.800;2023-04-25T08:23:01;9.10;;;3.00;;
49590;SDS011;35496;-21.974;-46.800;2023-04-25T08:25:27;3.70;;;2.20;;
49590;SDS011;35496;-21.974;-46.800;2023-04-25T08:27:53;2.80;;;1.40;;
49590;SDS011;35496;-21.974;-46.800;2023-04-25T08:30:19;1.70;;;1.60;;
49590;SDS011;35496;-21.974;-46.800;2023-04-25T08:32:46;5.45;;;1.88;;
49590;SDS011;35496;-21.974;-46.800;2023-04-25T08:35:12;1.60;;;1.13;;
49590;SDS011;35496;-21.974;-46.800;2023-04-25T08:37:38;1.60;;;1.45;;
49590;SDS011;35496;-21.974;-46.800;2023-04-25T08:40:04;4.97;;;2.58;;
49590;SDS011;35496;-21.974;-46.800;2023-04-25T08:42:34;2.60;;;1.73;;
49590;SDS011;35496;-21.974;-46.800;2023-04-25T08:45:02;2.10;;;1.23;;
49590;SDS011;35496;-21.974;-46.800;2023-04-25T08:47:29;2.00;;;1.08;;
49590;SDS011;35496;-21.974;-46.800;2023-04-25T08:49:55;3.38;;;1.35;;
49590;SDS011;35496;-21.974;-46.800;2023-04-25T08:52:22;2.15;;;1.33;;
49590;SDS011;35496;-21.974;-46.800;2023-04-25T08:54:48;1.50;;;0.85;;
49590;SDS011;35496;-21.974;-46.800;2023-04-25T08:57:14;3.03;;;1.00;;
49590;SDS011;35496;-21.974;-46.800;2023-04-25T08:59:41;1.27;;;1.00;;
49590;SDS011;35496;-21.974;-46.800;2023-04-25T09:02:11;2.22;;;1.52;;
49590;SDS011;35496;-21.974;-46.800;2023-04-25T09:04:40;3.47;;;2.17;;
49590;SDS011;35496;-21.974;-46.800;2023-04-25T09:07:06;2.10;;;1.65;;
49590;SDS011;35496;-21.974;-46.800;2023-04-25T09:09:32;2.42;;;1.80;;
49590;SDS011;35496;-21.974;-46.800;2023-04-25T09:11:58;8.98;;;3.20;;
49590;SDS011;35496;-21.974;-46.800;2023-04-25T09:14:24;3.08;;;1.88;;
49590;SDS011;35496;-21.974;-46.800;2023-04-25T09:19:27;5.13;;;2.90;;
49590;SDS011;35496;-21.974;-46.800;2023-04-25T09:21:57;4.70;;;3.00;;
49590;SDS011;35496;-21.974;-46.800;2023-04-25T09:24:36;3.58;;;2.05;;
49590;SDS011;35496;-21.974;-46.800;2023-04-25T09:27:03;5.40;;;2.63;;
49590;SDS011;35496;-21.974;-46.800;2023-04-25T09:29:30;10.18;;;3.05;;
49590;SDS011;35496;-21.974;-46.800;2023-04-25T09:34:41;4.60;;;2.47;;
49590;SDS011;35496;-21.974;-46.800;2023-04-25T09:37:10;4.38;;;2.83;;
49590;SDS011;35496;-21.974;-46.800;2023-04-25T09:39:37;11.00;;;2.83;;
49590;SDS011;35496;-21.974;-46.800;2023-04-25T09:42:03;10.77;;;2.58;;
49590;SDS011;35496;-21.974;-46.800;2023-04-25T09:44:33;6.40;;;3.15;;
49590;SDS011;35496;-21.974;-46.800;2023-04-25T09:46:59;8.73;;;4.60;;
49590;SDS011;35496;-21.974;-46.800;2023-04-25T09:49:25;9.77;;;4.63;;
49590;SDS011;35496;-21.974;-46.800;2023-04-25T09:51:59;16.80;;;6.03;;
49590;SDS011;35496;-21.974;-46.800;2023-04-25T09:54:25;15.48;;;5.03;;
49590;SDS011;35496;-21.974;-46.800;2023-04-25T09:56:53;17.00;;;5.85;;
49590;SDS011;35496;-21.974;-46.800;2023-04-25T09:59:19;18.77;;;5.43;;
49590;SDS011;35496;-21.974;-46.800;2023-04-25T10:01:49;14.70;;;5.18;;
49590;SDS011;35496;-21.974;-46.800;2023-04-25T10:04:26;11.30;;;5.82;;
49590;SDS011;35496;-21.974;-46.800;2023-04-25T10:06:53;13.60;;;5.30;;
49590;SDS011;35496;-21.974;-46.800;2023-04-25T10:09:21;24.48;;;6.78;;
49590;SDS011;35496;-21.974;-46.800;2023-04-25T10:11:51;9.00;;;4.15;;
49590;SDS011;35496;-21.974;-46.800;2023-04-25T10:14:18;15.43;;;5.90;;
49590;SDS011;35496;-21.974;-46.800;2023-04-25T10:16:44;16.70;;;5.45;;
49590;SDS011;35496;-21.974;-46.800;2023-04-25T10:19:11;8.65;;;4.53;;
49590;SDS011;35496;-21.974;-46.800;2023-04-25T10:22:26;9.25;;;5.55;;
49590;SDS011;35496;-21.974;-46.800;2023-04-25T10:24:24;11.23;;;5.40;;
49590;SDS011;35496;-21.974;-46.800;2023-04-25T10:26:51;14.40;;;4.22;;
49590;SDS011;35496;-21.974;-46.800;2023-04-25T10:29:24;7.30;;;3.80;;
49590;SDS011;35496;-21.974;-46.800;2023-04-25T10:31:50;5.70;;;3.65;;
49590;SDS011;35496;-21.974;-46.800;2023-04-25T10:34:17;7.43;;;4.05;;
49590;SDS011;35496;-21.974;-46.800;2023-04-25T10:36:47;10.35;;;4.22;;
49590;SDS011;35496;-21.974;-46.800;2023-04-25T10:39:14;7.80;;;4.38;;
49590;SDS011;35496;-21.974;-46.800;2023-04-25T10:41:48;11.20;;;5.05;;
49590;SDS011;35496;-21.974;-46.800;2023-04-25T10:44:14;11.10;;;5.38;;
49590;SDS011;35496;-21.974;-46.800;2023-04-25T10:46:40;8.82;;;3.42;;
49590;SDS011;35496;-21.974;-46.800;2023-04-25T10:49:06;7.25;;;3.55;;
49590;SDS011;35496;-21.974;-46.800;2023-04-25T10:51:34;11.40;;;4.28;;
49590;SDS011;35496;-21.974;-46.800;2023-04-25T10:54:02;6.72;;;3.50;;
49590;SDS011;35496;-21.974;-46.800;2023-04-25T10:56:29;11.23;;;3.53;;
49590;SDS011;35496;-21.974;-46.800;2023-04-25T11:01:45;9.25;;;3.63;;
49590;SDS011;35496;-21.974;-46.800;2023-04-25T11:04:21;6.18;;;2.45;;
49590;SDS011;35496;-21.974;-46.800;2023-04-25T11:09:25;7.97;;;3.03;;
49590;SDS011;35496;-21.974;-46.800;2023-04-25T11:11:55;5.25;;;2.63;;
49590;SDS011;35496;-21.974;-46.800;2023-04-25T11:14:21;8.10;;;2.28;;
49590;SDS011;35496;-21.974;-46.800;2023-04-25T11:16:52;9.80;;;3.15;;
49590;SDS011;35496;-21.974;-46.800;2023-04-25T11:19:19;4.28;;;2.85;;
49590;SDS011;35496;-21.974;-46.800;2023-04-25T11:21:45;5.13;;;3.47;;
49590;SDS011;35496;-21.974;-46.800;2023-04-25T11:24:11;5.03;;;2.47;;
49590;SDS011;35496;-21.974;-46.800;2023-04-25T11:26:37;6.45;;;3.60;;
49590;SDS011;35496;-21.974;-46.800;2023-04-25T11:29:03;3.15;;;1.70;;
49590;SDS011;35496;-21.974;-46.800;2023-04-25T11:31:29;5.40;;;3.65;;
49590;SDS011;35496;-21.974;-46.800;2023-04-25T11:33:58;4.53;;;2.65;;
49590;SDS011;35496;-21.974;-46.800;2023-04-25T11:36:25;5.75;;;2.35;;
49590;SDS011;35496;-21.974;-46.800;2023-04-25T11:38:52;4.90;;;2.10;;
49590;SDS011;35496;-21.974;-46.800;2023-04-25T11:41:22;2.80;;;2.38;;
49590;SDS011;35496;-21.974;-46.800;2023-04-25T11:43:48;3.38;;;2.35;;
49590;SDS011;35496;-21.974;-46.800;2023-04-25T11:46:15;5.32;;;3.00;;
49590;SDS011;35496;-21.974;-46.800;2023-04-25T11:48:41;5.68;;;2.83;;
49590;SDS011;35496;-21.974;-46.800;2023-04-25T11:51:10;5.15;;;2.15;;
49590;SDS011;35496;-21.974;-46.800;2023-04-25T11:53:38;8.70;;;2.55;;
49590;SDS011;35496;-21.974;-46.800;2023-04-25T11:56:10;4.45;;;2.40;;
49590;SDS011;35496;-21.974;-46.800;2023-04-25T12:01:40;2.90;;;1.95;;
49590;SDS011;35496;-21.974;-46.800;2023-04-25T12:04:10;5.63;;;2.40;;
49590;SDS011;35496;-21.974;-46.800;2023-04-25T12:06:37;3.08;;;2.17;;
49590;SDS011;35496;-21.974;-46.800;2023-04-25T12:09:07;7.05;;;1.92;;
49590;SDS011;35496;-21.974;-46.800;2023-04-25T12:11:40;2.35;;;1.75;;
49590;SDS011;35496;-21.974;-46.800;2023-04-25T12:14:06;4.25;;;1.92;;
49590;SDS011;35496;-21.974;-46.800;2023-04-25T12:19:08;4.28;;;1.58;;
49590;SDS011;35496;-21.974;-46.800;2023-04-25T12:21:34;5.68;;;2.38;;
49590;SDS011;35496;-21.974;-46.800;2023-04-25T12:24:13;9.88;;;2.35;;
49590;SDS011;35496;-21.974;-46.800;2023-04-25T12:26:50;2.50;;;1.60;;
49590;SDS011;35496;-21.974;-46.800;2023-04-25T12:29:21;7.15;;;1.90;;
49590;SDS011;35496;-21.974;-46.800;2023-04-25T12:31:47;7.97;;;2.97;;
49590;SDS011;35496;-21.974;-46.800;2023-04-25T12:34:13;5.82;;;2.42;;
49590;SDS011;35496;-21.974;-46.800;2023-04-25T12:36:40;6.13;;;1.77;;
49590;SDS011;35496;-21.974;-46.800;2023-04-25T12:39:06;3.60;;;1.92;;
49590;SDS011;35496;-21.974;-46.800;2023-04-25T12:41:32;4.72;;;2.85;;
49590;SDS011;35496;-21.974;-46.800;2023-04-25T12:43:58;3.05;;;2.25;;
49590;SDS011;35496;-21.974;-46.800;2023-04-25T12:46:25;4.43;;;2.10;;
49590;SDS011;35496;-21.974;-46.800;2023-04-25T12:48:51;2.33;;;1.75;;
49590;SDS011;35496;-21.974;-46.800;2023-04-25T12:51:17;5.43;;;2.13;;
49590;SDS011;35496;-21.974;-46.800;2023-04-25T12:53:43;8.15;;;2.42;;
49590;SDS011;35496;-21.974;-46.800;2023-04-25T12:56:09;4.88;;;2.60;;
49590;SDS011;35496;-21.974;-46.800;2023-04-25T12:58:35;2.90;;;1.67;;
49590;SDS011;35496;-21.974;-46.800;2023-04-25T13:01:01;6.20;;;2.65;;
49590;SDS011;35496;-21.974;-46.800;2023-04-25T13:03:27;5.55;;;2.10;;
49590;SDS011;35496;-21.974;-46.800;2023-04-25T13:05:53;3.80;;;1.70;;
49590;SDS011;35496;-21.974;-46.800;2023-04-25T13:08:19;7.78;;;1.88;;
49590;SDS011;35496;-21.974;-46.800;2023-04-25T13:10:47;6.82;;;2.08;;
49590;SDS011;35496;-21.974;-46.800;2023-04-25T13:13:13;4.30;;;1.17;;
49590;SDS011;35496;-21.974;-46.800;2023-04-25T13:15:39;4.18;;;1.40;;
49590;SDS011;35496;-21.974;-46.800;2023-04-25T13:18:05;2.58;;;1.77;;
49590;SDS011;35496;-21.974;-46.800;2023-04-25T13:20:32;8.68;;;2.20;;
49590;SDS011;35496;-21.974;-46.800;2023-04-25T13:22:58;2.35;;;1.77;;
49590;SDS011;35496;-21.974;-46.800;2023-04-25T13:25:25;3.80;;;1.58;;
49590;SDS011;35496;-21.974;-46.800;2023-04-25T13:27:51;4.30;;;1.73;;
49590;SDS011;35496;-21.974;-46.800;2023-04-25T13:30:17;4.57;;;1.73;;
49590;SDS011;35496;-21.974;-46.800;2023-04-25T13:32:43;9.02;;;2.05;;
49590;SDS011;35496;-21.974;-46.800;2023-04-25T13:35:10;2.90;;;1.40;;
49590;SDS011;35496;-21.974;-46.800;2023-04-25T13:37:36;5.00;;;1.75;;
49590;SDS011;35496;-21.974;-46.800;2023-04-25T13:40:03;1.95;;;1.35;;
49590;SDS011;35496;-21.974;-46.800;2023-04-25T13:42:30;5.90;;;1.63;;
49590;SDS011;35496;-21.974;-46.800;2023-04-25T13:44:56;3.03;;;1.40;;
49590;SDS011;35496;-21.974;-46.800;2023-04-25T13:47:22;2.47;;;0.98;;
49590;SDS011;35496;-21.974;-46.800;2023-04-25T13:49:49;3.35;;;1.80;;
49590;SDS011;35496;-21.974;-46.800;2023-04-25T13:52:15;1.77;;;1.35;;
49590;SDS011;35496;-21.974;-46.800;2023-04-25T13:54:41;9.93;;;1.70;;
49590;SDS011;35496;-21.974;-46.800;2023-04-25T13:57:07;3.55;;;1.92;;
49590;SDS011;35496;-21.974;-46.800;2023-04-25T13:59:33;4.45;;;1.77;;
49590;SDS011;35496;-21.974;-46.800;2023-04-25T14:01:59;3.28;;;1.65;;
49590;SDS011;35496;-21.974;-46.800;2023-04-25T14:04:25;3.47;;;2.05;;
49590;SDS011;35496;-21.974;-46.800;2023-04-25T14:06:53;2.60;;;1.90;;
49590;SDS011;35496;-21.974;-46.800;2023-04-25T14:09:19;3.10;;;1.67;;
49590;SDS011;35496;-21.974;-46.800;2023-04-25T14:11:47;3.28;;;1.63;;
49590;SDS011;35496;-21.974;-46.800;2023-04-25T14:14:13;2.25;;;1.27;;
49590;SDS011;35496;-21.974;-46.800;2023-04-25T14:16:41;2.20;;;1.70;;
49590;SDS011;35496;-21.974;-46.800;2023-04-25T14:19:07;3.85;;;1.70;;
49590;SDS011;35496;-21.974;-46.800;2023-04-25T14:21:33;4.05;;;1.48;;